createdAt,value
2022-10-17T00:00:51.477Z,5.50
2022-10-17T00:01:54.839Z,5.49
2022-10-17T00:02:58.697Z,5.50
2022-10-17T00:04:03.025Z,5.41
2022-10-17T00:05:05.914Z,5.48
2022-10-17T00:06:11.927Z,5.49
2022-10-17T00:07:15.326Z,5.48
2022-10-17T00:08:19.462Z,5.50
2022-10-17T00:09:23.677Z,5.56
2022-10-17T00:10:26.875Z,5.55
2022-10-17T00:11:30.171Z,5.62
2022-10-17T00:12:34.105Z,5.69
2022-10-17T00:13:37.423Z,5.75
2022-10-17T00:14:41.109Z,5.77
2022-10-17T00:15:45.767Z,5.83
2022-10-17T00:16:48.918Z,5.86
2022-10-17T00:17:54.022Z,5.86
2022-10-17T00:18:57.778Z,5.88
2022-10-17T00:20:03.485Z,5.89
2022-10-17T00:21:08.182Z,5.86
2022-10-17T00:22:13.274Z,5.78
2022-10-17T00:23:16.691Z,5.78
2022-10-17T00:24:21.320Z,5.73
2022-10-17T00:25:24.773Z,5.73
2022-10-17T00:26:30.355Z,5.71
2022-10-17T00:27:37.692Z,5.67
2022-10-17T00:28:41.440Z,5.64
2022-10-17T00:29:48.572Z,5.59
2022-10-17T00:30:58.655Z,5.56
2022-10-17T00:32:01.538Z,5.50
2022-10-17T00:33:05.249Z,5.48
2022-10-17T00:34:08.542Z,5.42
2022-10-17T00:35:13.416Z,5.40
2022-10-17T00:36:22.132Z,5.37
2022-10-17T00:37:26.460Z,5.35
2022-10-17T00:38:29.871Z,5.29
2022-10-17T00:39:34.631Z,5.25
2022-10-17T00:40:38.031Z,5.20
2022-10-17T00:41:41.524Z,5.13
2022-10-17T00:42:44.624Z,5.07
2022-10-17T00:43:56.068Z,5.06
2022-10-17T00:45:01.555Z,4.86
2022-10-17T00:46:05.269Z,4.72
2022-10-17T00:47:15.786Z,4.66
2022-10-17T00:48:23.453Z,4.65
2022-10-17T00:49:27.902Z,4.65
2022-10-17T00:50:34.330Z,4.68
2022-10-17T00:51:39.927Z,4.72
2022-10-17T00:52:46.134Z,4.76
2022-10-17T00:53:50.476Z,4.78
2022-10-17T00:55:01.615Z,4.75
2022-10-17T00:56:04.179Z,4.75
2022-10-17T00:57:07.719Z,4.74
2022-10-17T00:58:10.551Z,4.79
2022-10-17T00:59:14.576Z,4.75
2022-10-17T01:00:17.354Z,4.73
2022-10-17T01:01:20.830Z,4.71
2022-10-17T01:02:25.406Z,4.61
2022-10-17T01:03:28.964Z,4.63
2022-10-17T01:04:33.326Z,4.65
2022-10-17T01:05:38.534Z,4.64
2022-10-17T01:06:43.338Z,4.71
2022-10-17T01:07:48.060Z,4.68
2022-10-17T01:08:52.612Z,4.72
2022-10-17T01:09:56.846Z,4.74
2022-10-17T01:11:04.875Z,4.75
2022-10-17T01:12:09.391Z,4.79
2022-10-17T01:13:14.462Z,4.76
2022-10-17T01:14:26.087Z,4.73
2022-10-17T01:15:32.022Z,4.73
2022-10-17T01:16:49.837Z,4.76
2022-10-17T01:17:56.778Z,4.76
2022-10-17T01:19:17.592Z,4.77
2022-10-17T01:20:31.002Z,4.78
2022-10-17T01:21:36.237Z,4.78
2022-10-17T01:22:41.506Z,4.74
2022-10-17T01:24:02.572Z,4.70
2022-10-17T01:25:10.554Z,4.71
2022-10-17T01:26:19.814Z,4.75
2022-10-17T01:27:33.442Z,4.77
2022-10-17T01:29:48.911Z,4.82
2022-10-17T01:31:06.528Z,4.78
2022-10-17T01:32:11.495Z,4.75
2022-10-17T01:33:16.984Z,4.74
2022-10-17T01:34:23.298Z,4.71
2022-10-17T01:35:28.800Z,4.79
2022-10-17T01:36:42.702Z,4.84
2022-10-17T01:37:49.036Z,4.90
2022-10-17T01:39:00.026Z,5.00
2022-10-17T01:40:08.920Z,5.03
2022-10-17T01:41:13.826Z,5.07
2022-10-17T01:42:24.925Z,5.08
2022-10-17T01:43:41.902Z,5.05
2022-10-17T01:44:58.361Z,5.08
2022-10-17T01:46:08.549Z,5.15
2022-10-17T01:47:13.933Z,5.17
2022-10-17T01:48:20.159Z,5.22
2022-10-17T01:49:25.215Z,5.25
2022-10-17T01:50:33.014Z,5.29
2022-10-17T01:51:42.472Z,5.27
2022-10-17T01:52:48.624Z,5.26
2022-10-17T01:53:55.226Z,5.25
2022-10-17T01:55:02.584Z,5.33
2022-10-17T01:56:07.820Z,5.35
2022-10-17T01:57:12.113Z,5.33
2022-10-17T01:58:21.144Z,5.33
2022-10-17T01:59:26.213Z,5.33
2022-10-17T02:00:33.248Z,5.39
2022-10-17T02:01:37.796Z,5.47
2022-10-17T02:02:41.336Z,5.52
2022-10-17T02:03:46.500Z,5.61
2022-10-17T02:04:51.108Z,5.63
2022-10-17T02:05:54.867Z,5.63
2022-10-17T02:06:57.757Z,5.63
2022-10-17T02:08:00.943Z,5.66
2022-10-17T02:09:19.066Z,5.72
2022-10-17T02:10:28.312Z,5.70
2022-10-17T02:11:31.937Z,5.69
2022-10-17T02:12:38.144Z,5.67
2022-10-17T02:14:01.402Z,5.63
2022-10-17T02:15:08.135Z,5.65
2022-10-17T02:16:16.022Z,5.70
2022-10-17T02:17:21.421Z,5.58
2022-10-17T02:18:38.922Z,5.62
2022-10-17T02:19:45.253Z,5.71
2022-10-17T02:20:55.439Z,5.77
2022-10-17T02:22:09.596Z,5.77
2022-10-17T02:23:15.943Z,5.77
2022-10-17T02:24:27.457Z,5.75
2022-10-17T02:25:40.375Z,5.69
2022-10-17T02:26:48.267Z,5.73
2022-10-17T02:28:10.666Z,5.64
2022-10-17T02:29:21.901Z,5.72
2022-10-17T02:30:29.907Z,5.75
2022-10-17T02:31:34.248Z,5.80
2022-10-17T02:32:39.412Z,5.81
2022-10-17T02:33:44.590Z,5.80
2022-10-17T02:34:49.530Z,5.87
2022-10-17T02:35:55.056Z,5.86
2022-10-17T02:37:00.339Z,5.84
2022-10-17T02:38:05.505Z,5.75
2022-10-17T02:39:10.381Z,5.77
2022-10-17T02:40:15.026Z,5.77
2022-10-17T02:41:19.059Z,5.88
2022-10-17T02:42:25.418Z,5.96
2022-10-17T02:43:33.409Z,5.93
2022-10-17T02:44:38.269Z,5.97
2022-10-17T02:45:41.848Z,6.03
2022-10-17T02:46:52.204Z,6.08
2022-10-17T02:48:04.024Z,6.08
2022-10-17T02:49:13.397Z,6.01
2022-10-17T02:50:19.773Z,6.11
2022-10-17T02:51:27.305Z,6.18
2022-10-17T02:52:33.351Z,6.15
2022-10-17T02:53:42.631Z,6.05
2022-10-17T02:54:48.943Z,6.02
2022-10-17T02:55:55.641Z,6.00
2022-10-17T02:57:00.948Z,6.11
2022-10-17T02:58:05.402Z,6.05
2022-10-17T02:59:09.450Z,6.22
2022-10-17T03:00:18.746Z,6.24
2022-10-17T03:01:23.962Z,6.27
2022-10-17T03:02:27.653Z,6.31
2022-10-17T03:03:33.392Z,6.20
2022-10-17T03:04:38.047Z,6.29
2022-10-17T03:05:40.723Z,6.38
2022-10-17T03:06:46.412Z,6.41
2022-10-17T03:07:50.117Z,6.38
2022-10-17T03:08:54.781Z,6.39
2022-10-17T03:09:59.006Z,6.34
2022-10-17T03:11:02.208Z,6.30
2022-10-17T03:12:06.968Z,6.30
2022-10-17T03:13:10.831Z,6.33
2022-10-17T03:14:15.129Z,6.29
2022-10-17T03:15:18.935Z,6.37
2022-10-17T03:16:22.241Z,6.26
2022-10-17T03:17:26.362Z,6.31
2022-10-17T03:18:28.614Z,6.37
2022-10-17T03:19:33.166Z,6.39
2022-10-17T03:20:40.856Z,6.47
2022-10-17T03:21:45.511Z,6.49
2022-10-17T03:22:50.508Z,6.33
2022-10-17T03:23:53.560Z,6.18
2022-10-17T03:24:58.625Z,6.11
2022-10-17T03:26:05.483Z,6.12
2022-10-17T03:27:08.855Z,5.99
2022-10-17T03:28:14.260Z,6.07
2022-10-17T03:29:16.834Z,6.07
2022-10-17T03:30:20.270Z,6.01
2022-10-17T03:31:22.693Z,5.92
2022-10-17T03:32:26.304Z,5.90
2022-10-17T03:33:30.751Z,5.94
2022-10-17T03:34:35.508Z,5.82
2022-10-17T03:35:39.688Z,5.78
2022-10-17T03:36:45.345Z,5.72
2022-10-17T03:37:49.051Z,5.69
2022-10-17T03:38:57.031Z,5.64
2022-10-17T03:40:00.381Z,5.59
2022-10-17T03:41:06.060Z,5.49
2022-10-17T03:42:12.086Z,5.48
2022-10-17T03:43:15.769Z,5.43
2022-10-17T03:44:20.079Z,5.35
2022-10-17T03:45:24.553Z,5.33
2022-10-17T03:46:28.572Z,5.15
2022-10-17T03:47:33.219Z,5.16
2022-10-17T03:48:36.629Z,5.20
2022-10-17T03:49:41.811Z,5.07
2022-10-17T03:50:44.470Z,4.89
2022-10-17T03:51:48.705Z,4.75
2022-10-17T03:52:53.579Z,4.64
2022-10-17T03:53:56.866Z,4.52
2022-10-17T03:55:02.875Z,4.49
2022-10-17T03:56:20.562Z,4.44
2022-10-17T03:57:25.634Z,4.38
2022-10-17T03:58:30.426Z,4.41
2022-10-17T03:59:34.251Z,4.41
2022-10-17T04:00:39.417Z,4.49
2022-10-17T04:01:43.212Z,4.56
2022-10-17T04:02:48.311Z,4.62
2022-10-17T04:03:54.104Z,4.66
2022-10-17T04:04:57.514Z,4.66
2022-10-17T04:06:01.740Z,4.69
2022-10-17T04:07:05.976Z,4.71
2022-10-17T04:08:11.154Z,4.57
2022-10-17T04:09:33.226Z,4.47
2022-10-17T04:10:39.202Z,4.51
2022-10-17T04:11:42.770Z,4.54
2022-10-17T04:12:46.073Z,4.47
2022-10-17T04:13:51.459Z,4.46
2022-10-17T04:14:54.652Z,4.46
2022-10-17T04:16:00.138Z,4.48
2022-10-17T04:17:04.169Z,4.42
2022-10-17T04:18:12.125Z,4.42
2022-10-17T04:19:17.442Z,4.40
2022-10-17T04:20:23.140Z,4.32
2022-10-17T04:21:29.688Z,4.33
2022-10-17T04:22:35.584Z,4.32
2022-10-17T04:23:43.787Z,4.41
2022-10-17T04:24:49.172Z,4.41
2022-10-17T04:26:04.166Z,4.33
2022-10-17T04:27:07.777Z,4.48
2022-10-17T04:28:13.923Z,4.43
2022-10-17T04:29:20.035Z,4.48
2022-10-17T04:30:25.503Z,4.48
2022-10-17T04:31:29.212Z,4.54
2022-10-17T04:32:38.877Z,4.54
2022-10-17T04:33:50.415Z,4.54
2022-10-17T04:34:52.783Z,4.60
2022-10-17T04:36:04.633Z,4.58
2022-10-17T04:37:08.543Z,4.55
2022-10-17T04:38:11.120Z,4.68
2022-10-17T04:39:15.464Z,4.75
2022-10-17T04:40:22.559Z,4.69
2022-10-17T04:41:27.693Z,4.68
2022-10-17T04:42:33.876Z,4.63
2022-10-17T04:43:38.684Z,4.66
2022-10-17T04:44:42.605Z,4.69
2022-10-17T04:45:46.423Z,4.65
2022-10-17T04:46:51.391Z,4.79
2022-10-17T04:47:56.151Z,4.85
2022-10-17T04:48:59.551Z,4.97
2022-10-17T04:50:02.735Z,5.03
2022-10-17T04:51:11.459Z,5.10
2022-10-17T04:52:16.751Z,5.16
2022-10-17T04:53:21.717Z,5.21
2022-10-17T04:54:26.360Z,5.27
2022-10-17T04:55:34.094Z,5.38
2022-10-17T04:56:38.813Z,5.42
2022-10-17T04:57:42.558Z,5.45
2022-10-17T04:58:48.537Z,5.50
2022-10-17T04:59:53.742Z,5.65
2022-10-17T05:01:17.310Z,5.80
2022-10-17T05:02:23.290Z,5.95
2022-10-17T05:04:40.567Z,6.17
2022-10-17T05:05:44.872Z,6.13
2022-10-17T05:06:48.261Z,6.21
2022-10-17T05:08:09.953Z,6.17
2022-10-17T05:09:13.665Z,6.16
2022-10-17T05:10:17.379Z,6.10
2022-10-17T05:11:24.343Z,6.17
2022-10-17T05:12:28.369Z,6.25
2022-10-17T05:13:32.386Z,6.29
2022-10-17T05:14:36.088Z,6.35
2022-10-17T05:15:39.351Z,6.41
2022-10-17T05:16:42.679Z,6.44
2022-10-17T05:17:46.647Z,6.52
2022-10-17T05:18:53.151Z,6.56
2022-10-17T05:19:56.340Z,6.42
2022-10-17T05:20:59.739Z,6.54
2022-10-17T05:22:03.861Z,6.65
2022-10-17T05:23:06.948Z,6.77
2022-10-17T05:24:13.899Z,6.81
2022-10-17T05:25:17.520Z,6.87
2022-10-17T05:26:20.825Z,7.01
2022-10-17T05:27:25.595Z,6.94
2022-10-17T05:28:29.213Z,7.05
2022-10-17T05:29:36.274Z,7.05
2022-10-17T05:30:42.511Z,7.06
2022-10-17T05:31:45.926Z,7.17
2022-10-17T05:32:52.905Z,7.12
2022-10-17T05:34:02.156Z,6.98
2022-10-17T05:35:10.049Z,7.10
2022-10-17T05:36:14.635Z,7.25
2022-10-17T05:37:18.101Z,7.26
2022-10-17T05:38:23.602Z,7.39
2022-10-17T05:39:28.717Z,7.26
2022-10-17T05:40:34.048Z,7.32
2022-10-17T05:41:37.345Z,7.40
2022-10-17T05:42:41.512Z,7.48
2022-10-17T05:43:48.246Z,7.56
2022-10-17T05:44:55.831Z,7.58
2022-10-17T05:45:59.197Z,7.59
2022-10-17T05:47:03.681Z,7.52
2022-10-17T05:48:10.678Z,7.46
2022-10-17T05:49:25.200Z,7.54
2022-10-17T05:50:20.842Z,7.67
2022-10-17T05:51:36.393Z,7.70
2022-10-17T05:52:42.911Z,7.72
2022-10-17T05:53:48.079Z,7.56
2022-10-17T05:54:53.674Z,7.58
2022-10-17T05:56:00.732Z,7.61
2022-10-17T05:57:04.443Z,7.61
2022-10-17T05:58:09.740Z,7.79
2022-10-17T05:59:16.885Z,7.95
2022-10-17T06:00:27.481Z,8.29
2022-10-17T06:01:36.412Z,8.60
2022-10-17T06:02:39.864Z,8.53
2022-10-17T06:03:43.856Z,8.54
2022-10-17T06:04:49.345Z,8.73
2022-10-17T06:05:54.514Z,8.95
2022-10-17T06:06:59.806Z,9.06
2022-10-17T06:08:03.097Z,9.21
2022-10-17T06:09:09.110Z,9.71
2022-10-17T06:10:15.541Z,10.04
2022-10-17T06:11:20.283Z,10.35
2022-10-17T06:12:23.699Z,10.40
2022-10-17T06:13:27.622Z,10.54
2022-10-17T06:14:32.982Z,10.62
2022-10-17T06:15:41.011Z,10.47
2022-10-17T06:16:45.331Z,10.36
2022-10-17T06:17:49.576Z,10.32
2022-10-17T06:18:52.707Z,9.94
2022-10-17T06:19:56.059Z,9.96
2022-10-17T06:21:03.925Z,10.35
2022-10-17T06:22:07.777Z,10.87
2022-10-17T06:23:12.536Z,11.30
2022-10-17T06:24:27.215Z,11.53
2022-10-17T06:25:33.088Z,12.21
2022-10-17T06:26:36.766Z,12.17
2022-10-17T06:27:42.055Z,12.17
2022-10-17T06:28:47.066Z,11.91
2022-10-17T06:29:52.494Z,11.66
2022-10-17T06:30:55.869Z,11.31
2022-10-17T06:32:00.109Z,10.83
2022-10-17T06:33:03.924Z,10.80
2022-10-17T06:34:08.839Z,11.72
2022-10-17T06:35:11.248Z,13.67
2022-10-17T06:36:16.234Z,15.60
2022-10-17T06:37:21.903Z,15.84
2022-10-17T06:38:25.408Z,15.57
2022-10-17T06:39:34.448Z,15.16
2022-10-17T06:40:39.521Z,15.42
2022-10-17T06:41:45.440Z,14.83
2022-10-17T06:42:49.152Z,13.87
2022-10-17T06:44:11.564Z,13.70
2022-10-17T06:45:29.899Z,12.93
2022-10-17T06:46:39.819Z,13.06
2022-10-17T06:47:45.160Z,14.23
2022-10-17T06:48:49.208Z,16.10
2022-10-17T06:49:56.898Z,17.96
2022-10-17T06:51:06.528Z,19.85
2022-10-17T06:52:11.704Z,21.10
2022-10-17T06:53:18.354Z,21.59
2022-10-17T06:54:39.850Z,22.13
2022-10-17T06:55:45.196Z,22.44
2022-10-17T06:56:59.253Z,22.42
2022-10-17T06:58:19.990Z,23.03
2022-10-17T06:59:33.626Z,23.67
2022-10-17T07:00:45.439Z,24.99
2022-10-17T07:01:48.699Z,25.27
2022-10-17T07:02:53.031Z,25.89
2022-10-17T07:03:57.684Z,26.25
2022-10-17T07:05:00.903Z,26.63
2022-10-17T07:06:06.265Z,26.11
2022-10-17T07:07:09.900Z,25.58
2022-10-17T07:08:13.784Z,25.37
2022-10-17T07:09:17.706Z,24.88
2022-10-17T07:10:22.673Z,25.38
2022-10-17T07:11:25.457Z,26.19
2022-10-17T07:12:29.072Z,26.03
2022-10-17T07:13:34.492Z,25.83
2022-10-17T07:14:38.947Z,24.80
2022-10-17T07:15:46.931Z,25.98
2022-10-17T07:16:51.639Z,26.69
2022-10-17T07:17:57.140Z,27.03
2022-10-17T07:19:02.423Z,26.48
2022-10-17T07:20:07.944Z,26.38
2022-10-17T07:21:14.643Z,27.24
2022-10-17T07:22:18.118Z,28.00
2022-10-17T07:23:24.624Z,27.67
2022-10-17T07:24:28.303Z,27.66
2022-10-17T07:25:36.367Z,27.73
2022-10-17T07:26:40.931Z,27.41
2022-10-17T07:27:50.411Z,27.20
2022-10-17T07:28:59.165Z,27.11
2022-10-17T07:30:14.028Z,27.09
2022-10-17T07:31:21.264Z,27.25
2022-10-17T07:32:24.584Z,28.01
2022-10-17T07:33:28.511Z,27.33
2022-10-17T07:34:35.016Z,28.26
2022-10-17T07:35:42.186Z,27.95
2022-10-17T07:36:46.433Z,27.99
2022-10-17T07:37:50.771Z,27.55
2022-10-17T07:38:57.550Z,27.71
2022-10-17T07:40:02.098Z,28.08
2022-10-17T07:41:06.207Z,28.91
2022-10-17T07:42:09.818Z,29.58
2022-10-17T07:43:13.150Z,28.83
2022-10-17T07:44:16.397Z,28.85
2022-10-17T07:45:24.382Z,29.56
2022-10-17T07:46:28.118Z,28.63
2022-10-17T07:47:33.837Z,27.91
2022-10-17T07:48:37.037Z,28.22
2022-10-17T07:49:41.348Z,28.97
2022-10-17T07:50:44.947Z,29.10
2022-10-17T07:51:50.350Z,29.06
2022-10-17T07:52:53.210Z,28.63
2022-10-17T07:53:57.323Z,28.77
2022-10-17T07:55:00.538Z,28.70
2022-10-17T07:56:06.034Z,29.28
2022-10-17T07:57:09.650Z,29.87
2022-10-17T07:58:14.006Z,29.60
2022-10-17T07:59:19.716Z,29.27
2022-10-17T08:00:23.176Z,29.05
2022-10-17T08:01:28.992Z,29.12
2022-10-17T08:02:32.534Z,27.93
2022-10-17T08:03:37.544Z,28.20
2022-10-17T08:04:41.517Z,28.19
2022-10-17T08:05:44.984Z,28.58
2022-10-17T08:06:50.861Z,28.57
2022-10-17T08:07:54.396Z,28.35
2022-10-17T08:08:58.747Z,27.68
2022-10-17T08:10:02.243Z,28.41
2022-10-17T08:11:07.418Z,28.29
2022-10-17T08:12:10.707Z,28.64
2022-10-17T08:13:14.194Z,28.54
2022-10-17T08:14:18.464Z,27.91
2022-10-17T08:15:28.013Z,27.80
2022-10-17T08:16:31.780Z,28.01
2022-10-17T08:17:35.969Z,26.87
2022-10-17T08:18:40.456Z,27.25
2022-10-17T08:19:46.222Z,27.02
2022-10-17T08:20:49.510Z,27.27
2022-10-17T08:21:53.786Z,26.86
2022-10-17T08:22:57.255Z,26.63
2022-10-17T08:24:03.214Z,27.11
2022-10-17T08:25:06.141Z,26.14
2022-10-17T08:26:10.007Z,26.45
2022-10-17T08:27:13.584Z,26.59
2022-10-17T08:28:18.224Z,26.65
2022-10-17T08:29:21.739Z,26.18
2022-10-17T08:30:25.662Z,26.38
2022-10-17T08:31:29.375Z,25.48
2022-10-17T08:32:33.203Z,24.63
2022-10-17T08:33:36.803Z,24.42
2022-10-17T08:34:41.383Z,23.89
2022-10-17T08:35:46.012Z,23.57
2022-10-17T08:36:48.676Z,23.85
2022-10-17T08:37:51.021Z,23.58
2022-10-17T08:38:54.239Z,23.44
2022-10-17T08:39:58.042Z,23.12
2022-10-17T08:41:03.350Z,22.50
2022-10-17T08:42:07.663Z,22.20
2022-10-17T08:43:15.763Z,21.93
2022-10-17T08:44:35.981Z,21.30
2022-10-17T08:45:44.187Z,21.04
2022-10-17T08:46:50.406Z,20.96
2022-10-17T08:47:56.209Z,20.31
2022-10-17T08:49:03.160Z,20.42
2022-10-17T08:50:09.589Z,20.57
2022-10-17T08:51:15.969Z,20.37
2022-10-17T08:52:34.252Z,20.60
2022-10-17T08:53:45.107Z,20.25
2022-10-17T08:54:49.505Z,20.14
2022-10-17T08:55:53.334Z,19.91
2022-10-17T08:56:56.617Z,19.96
2022-10-17T08:58:01.603Z,19.65
2022-10-17T08:59:11.262Z,19.57
2022-10-17T09:00:17.304Z,19.50
2022-10-17T09:01:33.840Z,19.33
2022-10-17T09:02:44.996Z,19.41
2022-10-17T09:03:53.078Z,19.28
2022-10-17T09:05:16.300Z,19.64
2022-10-17T09:06:29.216Z,19.33
2022-10-17T09:07:43.689Z,19.04
2022-10-17T09:08:47.759Z,19.12
2022-10-17T09:09:53.052Z,19.05
2022-10-17T09:10:58.555Z,19.11
2022-10-17T09:12:14.026Z,18.78
2022-10-17T09:13:19.063Z,18.80
2022-10-17T09:14:29.993Z,19.02
2022-10-17T09:16:00.551Z,18.84
2022-10-17T09:17:07.713Z,18.49
2022-10-17T09:18:17.572Z,18.78
2022-10-17T09:19:26.087Z,18.65
2022-10-17T09:20:30.551Z,18.32
2022-10-17T09:21:35.092Z,18.56
2022-10-17T09:22:42.261Z,18.37
2022-10-17T09:23:47.375Z,18.60
2022-10-17T09:24:53.595Z,18.82
2022-10-17T09:25:57.895Z,18.91
2022-10-17T09:27:01.366Z,18.76
2022-10-17T09:28:06.776Z,18.87
2022-10-17T09:29:12.381Z,19.08
2022-10-17T09:30:44.841Z,18.81
2022-10-17T09:31:45.239Z,18.76
2022-10-17T09:32:49.718Z,19.12
2022-10-17T09:33:55.957Z,19.07
2022-10-17T09:35:02.071Z,18.74
2022-10-17T09:36:06.938Z,18.43
2022-10-17T09:37:15.771Z,18.59
2022-10-17T09:38:22.075Z,18.65
2022-10-17T09:39:32.256Z,18.72
2022-10-17T09:40:37.334Z,19.04
2022-10-17T09:41:46.805Z,19.12
2022-10-17T09:42:49.043Z,19.19
2022-10-17T09:43:57.992Z,19.02
2022-10-17T09:45:12.777Z,18.83
2022-10-17T09:46:18.164Z,18.85
2022-10-17T09:47:40.166Z,18.57
2022-10-17T09:48:49.810Z,18.63
2022-10-17T09:49:54.357Z,18.88
2022-10-17T09:51:14.584Z,18.36
2022-10-17T09:52:04.725Z,18.56
2022-10-17T09:53:12.616Z,18.60
2022-10-17T09:54:20.799Z,18.79
2022-10-17T09:55:29.204Z,18.57
2022-10-17T09:56:35.164Z,18.76
2022-10-17T09:57:54.850Z,18.65
2022-10-17T09:59:01.480Z,18.67
2022-10-17T10:00:06.104Z,18.70
2022-10-17T10:01:33.668Z,18.82
2022-10-17T10:02:40.103Z,18.85
2022-10-17T10:03:45.471Z,18.91
2022-10-17T10:05:04.616Z,18.97
2022-10-17T10:06:18.073Z,19.15
2022-10-17T10:07:25.642Z,18.53
2022-10-17T10:08:28.748Z,18.00
2022-10-17T10:09:38.146Z,17.85
2022-10-17T10:10:44.740Z,17.71
2022-10-17T10:11:52.947Z,17.54
2022-10-17T10:13:04.010Z,17.63
2022-10-17T10:14:15.309Z,17.88
2022-10-17T10:15:19.429Z,18.09
2022-10-17T10:16:33.392Z,18.36
2022-10-17T10:17:39.094Z,18.40
2022-10-17T10:18:43.905Z,18.38
2022-10-17T10:19:53.203Z,18.25
2022-10-17T10:21:13.733Z,17.98
2022-10-17T10:22:17.969Z,17.87
2022-10-17T10:23:23.142Z,17.93
2022-10-17T10:24:30.776Z,17.80
2022-10-17T10:25:33.805Z,18.05
2022-10-17T10:26:40.558Z,18.25
2022-10-17T10:27:44.468Z,18.35
2022-10-17T10:29:06.217Z,18.46
2022-10-17T10:30:13.722Z,18.46
2022-10-17T10:31:17.852Z,18.17
2022-10-17T10:32:24.919Z,17.68
2022-10-17T10:33:31.307Z,17.66
2022-10-17T10:34:36.097Z,17.73
2022-10-17T10:35:39.447Z,18.08
2022-10-17T10:36:46.500Z,18.09
2022-10-17T10:37:54.876Z,18.07
2022-10-17T10:39:01.331Z,18.15
2022-10-17T10:40:09.619Z,18.18
2022-10-17T10:41:14.727Z,17.97
2022-10-17T10:42:18.910Z,17.66
2022-10-17T10:43:42.270Z,17.91
2022-10-17T10:44:48.741Z,18.00
2022-10-17T10:45:54.513Z,18.19
2022-10-17T10:47:09.801Z,18.49
2022-10-17T10:48:29.846Z,18.45
2022-10-17T10:49:33.842Z,18.32
2022-10-17T10:50:47.610Z,18.08
2022-10-17T10:51:51.300Z,18.13
2022-10-17T10:53:02.210Z,18.17
2022-10-17T10:54:15.103Z,18.13
2022-10-17T10:55:20.709Z,18.07
2022-10-17T10:56:27.678Z,17.83
2022-10-17T10:57:34.903Z,17.85
2022-10-17T10:58:41.932Z,17.85
2022-10-17T10:59:48.006Z,18.01
2022-10-17T11:00:54.846Z,18.26
2022-10-17T11:02:11.298Z,18.39
2022-10-17T11:03:16.695Z,18.41
2022-10-17T11:04:26.572Z,18.29
2022-10-17T11:05:38.478Z,18.25
2022-10-17T11:06:45.181Z,18.40
2022-10-17T11:07:56.931Z,18.49
2022-10-17T11:09:04.855Z,18.28
2022-10-17T11:10:22.039Z,18.05
2022-10-17T11:11:28.505Z,17.94
2022-10-17T11:12:34.873Z,17.71
2022-10-17T11:13:39.211Z,17.73
2022-10-17T11:14:47.612Z,17.87
2022-10-17T11:16:04.922Z,17.66
2022-10-17T11:17:12.692Z,17.71
2022-10-17T11:18:23.739Z,18.08
2022-10-17T11:19:34.743Z,18.03
2022-10-17T11:20:59.255Z,17.95
2022-10-17T11:22:09.650Z,17.99
2022-10-17T11:23:15.038Z,17.85
2022-10-17T11:24:32.434Z,17.94
2022-10-17T11:25:40.882Z,18.00
2022-10-17T11:26:47.788Z,18.06
2022-10-17T11:27:52.345Z,17.98
2022-10-17T11:28:57.125Z,17.98
2022-10-17T11:30:00.188Z,18.14
2022-10-17T11:31:16.433Z,18.22
2022-10-17T11:32:37.390Z,18.20
2022-10-17T11:33:49.043Z,18.14
2022-10-17T11:34:54.103Z,18.43
2022-10-17T11:36:03.888Z,18.43
2022-10-17T11:37:09.155Z,18.21
2022-10-17T11:38:14.345Z,17.91
2022-10-17T11:39:23.478Z,18.12
2022-10-17T11:40:30.649Z,18.07
2022-10-17T11:41:40.664Z,17.96
2022-10-17T11:42:50.858Z,18.08
2022-10-17T11:43:56.931Z,18.18
2022-10-17T11:45:02.622Z,18.16
2022-10-17T11:46:08.342Z,18.11
2022-10-17T11:47:21.242Z,18.15
2022-10-17T11:48:30.428Z,18.14
2022-10-17T11:49:40.514Z,18.24
2022-10-17T11:52:01.644Z,18.42
2022-10-17T11:53:18.347Z,18.34
2022-10-17T11:54:27.389Z,18.09
2022-10-17T11:55:33.619Z,18.05
2022-10-17T11:56:43.003Z,18.06
2022-10-17T11:57:53.977Z,18.10
2022-10-17T12:00:15.609Z,18.33
2022-10-17T12:01:23.304Z,18.21
2022-10-17T12:02:30.302Z,18.30
2022-10-17T12:03:39.089Z,18.31
2022-10-17T12:04:53.189Z,18.26
2022-10-17T12:06:02.704Z,18.36
2022-10-17T12:07:10.050Z,18.32
2022-10-17T12:08:15.356Z,18.23
2022-10-17T12:09:20.742Z,17.95
2022-10-17T12:10:26.390Z,17.85
2022-10-17T12:11:46.031Z,18.13
2022-10-17T12:12:51.099Z,18.30
2022-10-17T12:13:57.892Z,18.30
2022-10-17T12:15:03.008Z,18.35
2022-10-17T12:16:25.146Z,18.16
2022-10-17T12:17:31.691Z,18.05
2022-10-17T12:18:34.935Z,18.25
2022-10-17T12:19:37.708Z,18.01
2022-10-17T12:20:44.245Z,17.77
2022-10-17T12:22:06.454Z,17.89
2022-10-17T12:23:14.527Z,17.74
2022-10-17T12:24:22.239Z,17.78
2022-10-17T12:25:32.111Z,17.84
2022-10-17T12:26:34.567Z,17.91
2022-10-17T12:27:40.262Z,18.01
2022-10-17T12:28:45.022Z,18.24
2022-10-17T12:29:48.935Z,18.05
2022-10-17T12:30:53.074Z,18.10
2022-10-17T12:31:58.297Z,18.06
2022-10-17T12:33:07.786Z,18.12
2022-10-17T12:34:16.348Z,18.26
2022-10-17T12:35:24.734Z,18.13
2022-10-17T12:36:31.481Z,18.17
2022-10-17T12:37:59.373Z,18.34
2022-10-17T12:39:08.894Z,18.51
2022-10-17T12:40:30.793Z,18.35
2022-10-17T12:41:43.178Z,18.27
2022-10-17T12:42:49.317Z,18.14
2022-10-17T12:43:53.630Z,18.22
2022-10-17T12:44:55.872Z,18.20
2022-10-17T12:46:04.409Z,18.35
2022-10-17T12:47:09.893Z,18.34
2022-10-17T12:48:12.551Z,18.31
2022-10-17T12:49:22.259Z,18.22
2022-10-17T12:50:43.165Z,18.06
2022-10-17T12:52:00.261Z,18.00
2022-10-17T12:53:04.812Z,18.29
2022-10-17T12:54:12.863Z,18.12
2022-10-17T12:55:17.084Z,18.19
2022-10-17T12:56:23.128Z,18.35
2022-10-17T12:57:27.405Z,18.30
2022-10-17T12:58:34.962Z,18.02
2022-10-17T12:59:38.373Z,18.04
2022-10-17T13:01:05.296Z,17.93
2022-10-17T13:01:53.956Z,17.73
2022-10-17T13:03:00.272Z,18.08
2022-10-17T13:04:09.223Z,18.25
2022-10-17T13:05:14.699Z,18.15
2022-10-17T13:06:33.344Z,17.95
2022-10-17T13:07:37.584Z,18.02
2022-10-17T13:08:42.784Z,18.08
2022-10-17T13:09:46.373Z,18.04
2022-10-17T13:10:52.674Z,17.84
2022-10-17T13:11:59.309Z,17.85
2022-10-17T13:13:03.455Z,17.81
2022-10-17T13:14:08.422Z,17.91
2022-10-17T13:15:14.212Z,17.96
2022-10-17T13:16:30.399Z,17.85
2022-10-17T13:17:33.559Z,17.80
2022-10-17T13:18:37.841Z,17.87
2022-10-17T13:19:44.760Z,17.83
2022-10-17T13:21:07.276Z,17.97
2022-10-17T13:22:12.449Z,18.04
2022-10-17T13:23:26.189Z,18.10
2022-10-17T13:24:31.083Z,18.12
2022-10-17T13:25:37.609Z,18.01
2022-10-17T13:26:42.449Z,18.05
2022-10-17T13:27:46.373Z,18.06
2022-10-17T13:29:03.207Z,18.05
2022-10-17T13:30:08.736Z,18.11
2022-10-17T13:31:16.523Z,17.88
2022-10-17T13:32:20.132Z,17.83
2022-10-17T13:33:30.432Z,17.97
2022-10-17T13:34:34.664Z,17.86
2022-10-17T13:36:00.447Z,17.64
2022-10-17T13:36:48.940Z,17.81
2022-10-17T13:37:54.031Z,17.84
2022-10-17T13:39:01.727Z,17.72
2022-10-17T13:40:22.975Z,17.78
2022-10-17T13:41:34.873Z,17.92
2022-10-17T13:42:25.627Z,17.92
2022-10-17T13:43:30.174Z,17.90
2022-10-17T13:44:33.790Z,17.80
2022-10-17T13:45:38.739Z,17.68
2022-10-17T13:46:45.406Z,17.57
2022-10-17T13:47:48.469Z,17.67
2022-10-17T13:48:51.133Z,17.72
2022-10-17T13:49:55.492Z,17.52
2022-10-17T13:51:03.877Z,17.43
2022-10-17T13:52:08.747Z,17.50
2022-10-17T13:53:20.089Z,17.56
2022-10-17T13:54:27.959Z,17.54
2022-10-17T13:55:31.067Z,17.53
2022-10-17T13:56:35.650Z,17.47
2022-10-17T13:57:39.019Z,17.45
2022-10-17T13:58:44.508Z,17.53
2022-10-17T14:00:11.427Z,17.52
2022-10-17T14:01:14.353Z,17.54
2022-10-17T14:02:20.833Z,17.65
2022-10-17T14:03:31.830Z,17.53
2022-10-17T14:04:39.978Z,17.51
2022-10-17T14:05:36.454Z,17.50
2022-10-17T14:06:47.571Z,17.30
2022-10-17T14:09:01.068Z,17.26
2022-10-17T14:10:07.067Z,17.37
2022-10-17T14:11:29.197Z,17.39
2022-10-17T14:12:33.528Z,17.42
2022-10-17T14:13:36.766Z,17.43
2022-10-17T14:15:08.762Z,17.27
2022-10-17T14:15:47.269Z,17.28
2022-10-17T14:16:50.891Z,17.17
2022-10-17T14:17:59.100Z,17.25
2022-10-17T14:19:03.135Z,17.26
2022-10-17T14:20:48.276Z,17.25
2022-10-17T14:22:25.222Z,17.15
2022-10-17T14:23:38.019Z,17.11
2022-10-17T14:24:42.269Z,17.14
2022-10-17T14:25:45.593Z,16.92
2022-10-17T14:26:50.727Z,16.94
2022-10-17T14:28:12.883Z,16.93
2022-10-17T14:29:17.494Z,16.86
2022-10-17T14:30:56.308Z,16.81
2022-10-17T14:31:35.720Z,16.83
2022-10-17T14:32:39.506Z,16.71
2022-10-17T14:33:51.002Z,16.63
2022-10-17T14:35:04.643Z,16.58
2022-10-17T14:36:02.135Z,16.66
2022-10-17T14:37:15.175Z,16.67
2022-10-17T14:38:20.210Z,16.54
2022-10-17T14:39:28.251Z,16.41
2022-10-17T14:40:33.277Z,16.39
2022-10-17T14:41:42.922Z,16.46